createdAt,value
2023-04-24T07:11:18.715Z,100671.13
2023-04-24T07:13:45.728Z,100683.28
2023-04-24T07:16:12.633Z,100683.25
2023-04-24T07:18:40.860Z,100694.56
2023-04-24T07:21:08.313Z,100708.56
2023-04-24T07:23:35.175Z,100708.47
2023-04-24T07:26:02.101Z,100711.88
2023-04-24T07:28:32.064Z,100645.31
2023-04-24T07:31:00.805Z,100675.63
2023-04-24T07:33:28.065Z,100705.84
2023-04-24T07:35:55.638Z,100723.16
2023-04-24T07:38:42.491Z,100659.16
2023-04-24T07:41:29.502Z,100717.84
2023-04-24T07:44:16.439Z,100726.53
2023-04-24T07:47:03.427Z,100723.91
2023-04-24T07:49:50.434Z,100716.16
2023-04-24T07:52:37.366Z,100736.03
2023-04-24T07:55:27.242Z,100749.16
2023-04-24T07:58:15.103Z,100703.34
2023-04-24T08:01:02.090Z,100749.09
2023-04-24T08:03:49.131Z,100754.38
2023-04-24T08:06:36.348Z,100760.41
2023-04-24T08:09:24.587Z,100761.25
2023-04-24T08:12:12.929Z,100764.72
2023-04-24T08:14:59.946Z,100729.16
2023-04-24T08:17:46.880Z,100769.91
2023-04-24T08:20:36.757Z,100774.25
2023-04-24T08:23:23.763Z,100779.44
2023-04-24T08:26:10.752Z,100761.16
2023-04-24T08:28:58.123Z,100773.19
2023-04-24T08:31:45.067Z,100763.69
2023-04-24T08:34:32.210Z,100786.22
2023-04-24T08:37:19.287Z,100796.69
2023-04-24T08:40:06.249Z,100774.06
2023-04-24T08:42:57.311Z,100785.16
2023-04-24T08:45:45.785Z,100747.03
2023-04-24T08:48:33.334Z,100793.72
2023-04-24T08:51:20.955Z,100768.63
2023-04-24T08:54:08.308Z,100809.34
2023-04-24T08:56:58.030Z,100789.31
2023-04-24T08:59:45.182Z,100803.06
2023-04-24T09:02:32.549Z,100809.06
2023-04-24T09:05:19.874Z,100815.06
2023-04-24T09:08:13.136Z,100822.84
2023-04-24T09:11:00.670Z,100795.03
2023-04-24T09:13:47.758Z,100806.03
2023-04-24T09:16:15.782Z,100818.16
2023-04-24T09:18:43.441Z,100822.41
2023-04-24T09:21:11.667Z,100826.72
2023-04-24T09:23:39.728Z,100824.81
2023-04-24T09:26:06.890Z,100826.53
2023-04-24T09:28:36.990Z,100825.56
2023-04-24T09:31:10.935Z,100824.63
2023-04-24T09:33:38.533Z,100808.94
2023-04-24T09:36:07.055Z,100763.00
2023-04-24T09:38:38.717Z,100812.00
2023-04-24T09:41:08.515Z,100785.16
2023-04-24T09:43:36.801Z,100793.63
2023-04-24T09:46:08.700Z,100813.44
2023-04-24T09:48:37.886Z,100815.00
2023-04-24T09:51:11.870Z,100806.16
2023-04-24T09:53:41.082Z,100813.03
2023-04-24T09:56:14.030Z,100775.69
2023-04-24T09:58:41.102Z,100810.16
2023-04-24T10:01:08.306Z,100810.00
2023-04-24T10:03:36.702Z,100802.34
2023-04-24T10:06:10.251Z,100825.56
2023-04-24T10:08:38.507Z,100809.88
2023-04-24T10:11:05.851Z,100829.81
2023-04-24T10:13:34.011Z,100827.88
2023-04-24T10:16:02.029Z,100832.06
2023-04-24T10:18:30.959Z,100828.28
2023-04-24T10:20:59.568Z,100816.91
2023-04-24T10:23:27.001Z,100790.84
2023-04-24T10:25:55.409Z,100840.66
2023-04-24T10:28:43.593Z,100849.09
2023-04-24T10:31:31.093Z,100833.13
2023-04-24T10:34:19.614Z,100847.28
2023-04-24T10:37:11.780Z,100862.63
2023-04-24T10:39:58.956Z,100870.13
2023-04-24T10:42:48.827Z,100867.28
2023-04-24T10:45:42.770Z,100807.56
2023-04-24T10:48:32.512Z,100878.16
2023-04-24T10:51:19.573Z,100877.91
2023-04-24T10:54:06.487Z,100875.31
2023-04-24T10:56:54.233Z,100882.09
2023-04-24T10:59:56.642Z,100880.22
2023-04-24T11:02:58.020Z,100886.97
2023-04-24T11:06:13.873Z,100907.13
2023-04-24T11:09:09.189Z,100900.97
2023-04-24T11:11:58.330Z,100912.53
2023-04-24T11:14:47.741Z,100914.25
2023-04-24T11:17:50.125Z,100918.69
2023-04-24T11:20:38.989Z,100890.13
2023-04-24T11:23:26.992Z,100915.50
2023-04-24T11:26:31.815Z,100947.59
2023-04-24T11:29:28.446Z,100953.66
2023-04-24T11:32:15.427Z,100964.94
2023-04-24T11:35:02.598Z,100957.84
2023-04-24T11:40:50.543Z,100955.97
2023-04-24T11:43:39.384Z,100964.59
2023-04-24T11:46:26.615Z,100958.28
2023-04-24T11:49:14.107Z,100961.69
2023-04-24T11:52:01.341Z,100952.94
2023-04-24T11:54:48.707Z,100962.41
2023-04-24T11:57:35.853Z,100965.06
2023-04-24T12:00:24.447Z,100904.69
2023-04-24T12:03:12.029Z,100962.41
2023-04-24T12:06:00.160Z,100952.88
2023-04-24T12:08:50.211Z,100962.28
2023-04-24T12:11:38.838Z,100977.19
2023-04-24T12:14:32.863Z,100972.78
2023-04-24T12:17:20.053Z,100985.16
2023-04-24T12:20:04.586Z,100980.78
2023-04-24T12:22:48.622Z,100984.22
2023-04-24T12:25:17.159Z,100962.47
2023-04-24T12:27:45.421Z,100980.56
2023-04-24T12:30:17.668Z,100974.34
2023-04-24T12:33:07.921Z,100972.47
2023-04-24T12:35:54.875Z,100979.47
2023-04-24T12:38:47.181Z,100978.53
2023-04-24T12:41:35.092Z,100978.47
2023-04-24T12:44:22.043Z,100985.69
2023-04-24T12:47:09.530Z,100991.81
2023-04-24T12:49:56.801Z,101007.66
2023-04-24T12:52:44.826Z,101004.16
2023-04-24T12:55:32.036Z,101017.31
2023-04-24T12:58:19.107Z,101024.50
2023-04-24T13:00:46.863Z,101021.00
2023-04-24T13:03:14.517Z,101028.91
2023-04-24T13:05:42.360Z,101024.59
2023-04-24T13:08:09.531Z,101024.56
2023-04-24T13:10:36.892Z,101022.75
2023-04-24T13:13:04.771Z,100981.44
2023-04-24T13:15:32.069Z,100994.44
2023-04-24T13:17:59.188Z,101027.41
2023-04-24T13:20:27.215Z,101036.19
2023-04-24T13:22:54.190Z,101030.06
2023-04-24T13:25:21.504Z,101019.53
2023-04-24T13:27:48.548Z,101012.59
2023-04-24T13:30:15.616Z,101020.25
2023-04-24T13:32:42.594Z,101024.56
2023-04-24T13:35:09.789Z,101026.31
2023-04-24T13:37:36.799Z,101025.31
2023-04-24T13:40:07.082Z,101024.31
2023-04-24T13:42:34.478Z,101036.69
2023-04-24T13:45:06.072Z,101039.28
2023-04-24T13:47:42.281Z,101041.16
2023-04-24T13:50:10.889Z,101050.03
2023-04-24T13:52:37.847Z,101009.47
2023-04-24T13:55:05.239Z,101043.13
2023-04-24T13:57:32.579Z,101037.34
2023-04-24T14:00:02.576Z,101081.91
2023-04-24T14:02:34.245Z,101070.59
2023-04-24T14:05:01.489Z,101076.06
2023-04-24T14:07:29.282Z,101086.69
2023-04-24T14:09:56.364Z,101078.13
2023-04-24T14:12:23.556Z,101074.69
2023-04-24T14:14:50.566Z,101086.09
2023-04-24T14:17:17.526Z,101083.56
2023-04-24T14:19:44.848Z,101090.66
2023-04-24T14:22:11.798Z,101083.88
2023-04-24T14:24:38.880Z,101098.66
2023-04-24T14:27:05.902Z,101104.03
2023-04-24T14:29:34.860Z,101099.84
2023-04-24T14:32:02.396Z,101106.63
2023-04-24T14:34:29.334Z,101105.72
2023-04-24T14:36:56.619Z,101101.31
2023-04-24T14:39:23.677Z,101091.69
2023-04-24T14:41:50.803Z,101091.97
2023-04-24T14:44:17.775Z,101096.25
2023-04-24T14:46:45.163Z,101092.84
2023-04-24T14:49:13.535Z,101051.50
2023-04-24T14:51:40.534Z,101099.16
2023-04-24T14:54:08.178Z,101092.19
2023-04-24T14:56:35.544Z,101098.41
2023-04-24T14:59:03.137Z,101098.44
2023-04-24T15:01:30.658Z,101096.72
2023-04-24T15:03:57.779Z,101019.66
2023-04-24T15:06:25.950Z,101094.13
2023-04-24T15:08:53.042Z,101100.28
2023-04-24T15:11:19.986Z,101101.97
2023-04-24T15:13:47.526Z,101107.38
2023-04-24T15:16:15.448Z,101110.72
2023-04-24T15:18:42.747Z,101108.09
2023-04-24T15:21:09.765Z,101111.59
2023-04-24T15:23:36.758Z,101101.03
2023-04-24T15:26:23.570Z,101101.94
2023-04-24T15:29:10.830Z,101103.81
2023-04-24T15:31:58.070Z,101108.41
2023-04-24T15:34:45.883Z,101107.44
2023-04-24T15:37:32.928Z,101116.22
2023-04-24T15:40:19.858Z,101113.59
2023-04-24T15:43:06.886Z,101116.19
2023-04-24T15:45:54.341Z,101116.16
2023-04-24T15:48:41.421Z,101117.03
2023-04-24T15:51:28.363Z,101120.56
2023-04-24T15:54:15.595Z,101117.06
2023-04-24T15:57:02.603Z,101118.97
2023-04-24T15:59:49.971Z,101112.81
2023-04-24T16:02:39.833Z,101117.09
2023-04-24T16:05:27.507Z,101110.91
2023-04-24T16:08:14.620Z,101111.78
2023-04-24T16:11:02.010Z,101114.41
2023-04-24T16:13:49.204Z,101103.06
2023-04-24T16:16:36.159Z,101118.91
2023-04-24T16:19:23.598Z,101112.81
2023-04-24T16:22:10.542Z,101108.44
2023-04-24T16:24:57.526Z,101112.84
2023-04-24T16:27:45.552Z,101059.38
2023-04-24T16:30:33.005Z,101059.03
2023-04-24T16:33:20.007Z,101119.88
2023-04-24T16:36:07.636Z,101107.66
2023-04-24T16:38:55.281Z,101111.91
2023-04-24T16:41:42.380Z,101103.13
2023-04-24T16:44:29.733Z,101094.31
2023-04-24T16:47:16.880Z,101086.34
2023-04-24T16:50:03.790Z,101084.63
2023-04-24T16:52:50.814Z,101074.19
2023-04-24T16:55:37.904Z,101082.97
2023-04-24T16:58:24.999Z,101080.34
2023-04-24T17:01:11.939Z,101073.38
2023-04-24T17:03:59.260Z,101083.97
2023-04-24T17:06:46.258Z,101083.19
2023-04-24T17:09:33.261Z,101084.16
2023-04-24T17:12:20.146Z,101091.25
2023-04-24T17:15:07.065Z,101092.22
2023-04-24T17:17:54.012Z,101088.84
2023-04-24T17:20:41.110Z,101090.75
2023-04-24T17:23:28.118Z,101093.47
2023-04-24T17:26:15.119Z,101090.88
2023-04-24T17:29:02.065Z,101095.38
2023-04-24T17:31:49.132Z,101098.97
2023-04-24T17:34:36.168Z,101088.50
2023-04-24T17:37:23.744Z,101086.94
2023-04-24T17:40:10.666Z,101096.53
2023-04-24T17:42:57.583Z,101106.28
2023-04-24T17:45:44.472Z,101111.56
2023-04-24T17:48:35.182Z,101107.19
2023-04-24T17:51:21.976Z,101129.09
2023-04-24T17:54:08.989Z,101126.50
2023-04-24T17:56:56.163Z,101131.88
2023-04-24T17:59:43.263Z,101131.06
2023-04-24T18:02:30.100Z,101139.09
2023-04-24T18:05:17.249Z,101135.72
2023-04-24T18:08:04.126Z,101127.84
2023-04-24T18:10:52.541Z,101127.00
2023-04-24T18:13:39.410Z,101127.13
2023-04-24T18:16:26.965Z,101129.84
2023-04-24T18:19:13.755Z,101131.72
2023-04-24T18:22:00.799Z,101126.59
2023-04-24T18:24:47.666Z,101129.28
2023-04-24T18:27:34.590Z,101126.72
2023-04-24T18:30:21.690Z,101123.25
2023-04-24T18:33:09.967Z,101116.38
2023-04-24T18:35:58.035Z,101062.72
2023-04-24T18:38:44.978Z,101117.44
2023-04-24T18:41:31.941Z,101117.47
2023-04-24T18:44:18.978Z,101121.94
2023-04-24T18:47:05.988Z,101120.25
2023-04-24T18:49:53.297Z,101122.13
2023-04-24T18:52:40.150Z,101125.72
2023-04-24T18:55:27.472Z,101125.84
2023-04-24T18:58:14.425Z,101121.63
2023-04-24T19:01:01.603Z,101129.53
2023-04-24T19:03:48.727Z,101135.78
2023-04-24T19:06:35.814Z,101125.28
2023-04-24T19:09:23.164Z,101112.34
2023-04-24T19:12:10.570Z,101096.84
2023-04-24T19:14:57.406Z,101118.53
2023-04-24T19:17:44.819Z,101126.59
2023-04-24T19:20:32.001Z,101104.88
2023-04-24T19:23:18.980Z,101121.41
2023-04-24T19:26:05.816Z,101126.75
2023-04-24T19:28:52.938Z,101065.34
2023-04-24T19:31:39.967Z,101129.56
2023-04-24T19:34:27.178Z,101132.28
2023-04-24T19:37:14.056Z,101139.41
2023-04-24T19:40:01.140Z,101151.78
2023-04-24T19:42:48.048Z,101150.16
2023-04-24T19:45:35.153Z,101152.81
2023-04-24T19:48:22.394Z,101159.03
2023-04-24T19:51:09.420Z,101153.00
2023-04-24T19:53:56.344Z,101142.59
2023-04-24T19:56:43.445Z,101147.88
2023-04-24T19:59:31.023Z,101154.09
2023-04-24T20:02:19.199Z,101158.56
2023-04-24T20:05:06.367Z,101156.00
2023-04-24T20:07:53.303Z,101166.59
2023-04-24T20:10:40.092Z,101172.78
2023-04-24T20:13:27.161Z,101164.91
2023-04-24T20:16:14.119Z,101099.97
2023-04-24T20:19:01.219Z,101140.75
2023-04-24T20:21:48.612Z,101162.56
2023-04-24T20:24:35.487Z,101166.03
2023-04-24T20:27:22.450Z,101164.31
2023-04-24T20:30:09.589Z,101160.81
2023-04-24T20:32:56.693Z,101161.78
2023-04-24T20:35:43.814Z,101163.53
2023-04-24T20:38:30.668Z,101170.56
2023-04-24T20:41:17.746Z,101147.09
2023-04-24T20:44:04.563Z,101172.31
2023-04-24T20:46:51.829Z,101163.66
2023-04-24T20:49:38.867Z,101163.66
2023-04-24T20:52:25.861Z,101172.38
2023-04-24T20:55:12.637Z,101167.13
2023-04-24T20:58:00.768Z,101159.28
2023-04-24T21:00:49.170Z,101145.41
2023-04-24T21:03:36.829Z,101161.94
2023-04-24T21:06:24.102Z,101161.94
2023-04-24T21:09:11.145Z,101155.03
2023-04-24T21:11:57.985Z,101160.25
2023-04-24T21:14:44.836Z,101174.34
2023-04-24T21:17:31.818Z,101158.66
2023-04-24T21:20:19.183Z,101168.28
2023-04-24T21:23:06.044Z,101161.31
2023-04-24T21:25:53.544Z,101166.53
2023-04-24T21:28:40.390Z,101168.31
2023-04-24T21:31:27.306Z,101171.81
2023-04-24T21:34:14.128Z,101121.50
2023-04-24T21:37:01.114Z,101167.47
2023-04-24T21:39:47.902Z,101165.84
2023-04-24T21:42:35.611Z,101176.28
2023-04-24T21:45:22.591Z,101173.63
2023-04-24T21:48:09.666Z,101178.88
2023-04-24T21:50:56.639Z,101177.09
2023-04-24T21:53:43.753Z,101192.03
2023-04-24T21:56:30.797Z,101186.81
2023-04-24T21:59:18.308Z,101181.59
2023-04-24T22:02:05.262Z,101173.78
2023-04-24T22:04:52.526Z,101183.25
2023-04-24T22:07:39.475Z,101126.88
2023-04-24T22:10:27.362Z,101189.41
2023-04-24T22:13:14.267Z,101185.00
2023-04-24T22:16:01.641Z,101176.28
2023-04-24T22:18:48.456Z,101165.75
2023-04-24T22:21:35.999Z,101179.75
2023-04-24T22:24:22.948Z,101150.16
2023-04-24T22:27:10.073Z,101162.22
2023-04-24T22:29:57.029Z,101162.22
2023-04-24T22:32:44.209Z,101160.50
2023-04-24T22:35:31.056Z,101135.31
2023-04-24T22:38:18.737Z,101160.69
2023-04-24T22:41:05.582Z,101168.50
2023-04-24T22:43:52.767Z,101171.97
2023-04-24T22:46:39.616Z,101117.44
2023-04-24T22:49:26.869Z,101192.19
2023-04-24T22:52:13.802Z,101178.19
2023-04-24T22:55:01.061Z,101178.16
2023-04-24T22:57:48.111Z,101154.81
2023-04-24T23:00:35.626Z,101157.34
2023-04-24T23:03:22.897Z,101172.03
2023-04-24T23:06:10.029Z,101172.94
2023-04-24T23:08:57.003Z,101159.81
2023-04-24T23:11:44.034Z,101145.88
2023-04-24T23:14:30.902Z,101162.44
2023-04-24T23:17:18.241Z,101143.19
2023-04-24T23:20:05.394Z,101149.34
2023-04-24T23:22:52.400Z,101149.38
2023-04-24T23:25:39.275Z,101148.47
2023-04-24T23:28:26.239Z,101150.25
2023-04-24T23:31:13.069Z,101136.25
2023-04-24T23:34:00.072Z,101140.59
2023-04-24T23:36:47.174Z,101136.22
2023-04-24T23:39:34.307Z,101129.25
2023-04-24T23:42:21.201Z,101130.13
2023-04-24T23:45:08.336Z,101124.88
2023-04-24T23:47:55.165Z,101123.13
2023-04-24T23:50:42.299Z,101122.25
2023-04-24T23:53:29.634Z,101135.44
2023-04-24T23:56:16.793Z,101128.44
2023-04-24T23:59:03.689Z,101116.25
